Portada
METAR-TAF:

METAR-TAF

Aeroports :

Ilhéus, Bahia, Brasil

latitud: 14-49S, longitud: 039-02W, altitud: 4 m

Observació

L'informe es va fer fa 33 minuts, a les 19:00 UTC
Vent 8 kt del Est
Temperatura 29°C
Humitat 70%
Pressió 1012 hPa
Visibilitat 10 km o més
Núvols disperses a una alçada de 2500 ft

METAR: SBIL 211900Z 10008KT 9999 SCT025 29/23 Q1012

Hora: 16:33 (19:33 UTC)

Pronòstic

L'informe es va fer fa 3 hores i 33 minuts, a les 16:00 UTC
Pronòstic vàlid del 21 a les 18 UTC al 22 a les 06 UTC
Vent 8 kt del Est
Visibilitat 10 km o més
Núvols disperses a una alçada de 2500 ft
Evolucionant progressivament
l' 22 a les 03 UTC al 22 a les 05 UTC
Vent 5 kt del Oest

TAF: SBIL 211600Z 2118/2206 10008KT 9999 SCT025 TX30/2118Z TN26/2206Z BECMG 2203/2205 27005KT RMK PEH

Observacions i pronòstics meteorològics de més de 4000 aeroports (METAR i TAF).

Les estacions disponibles són els punts grocs i vermells al mapa.

Posi el ratolí al punt desitjat per veure el nom de l'estació.

Feu clic per veure les observacions i els pronòstics meteorològics.

Per canviar el mapa: feu clic els botons verds amb una creu de color negre per apropar; al botó verd amb un guió per allunyar la imatge; o en les fletxes verdes per a mapes adjacents.


METAR-TAF: